sensor_id;sensor_type;location;lat;lon;timestamp;P1;durP1;ratioP1;P2;durP2;ratioP2
51862;SDS011;37900;52.996;6.278;2023-08-06T00:00:40;2.88;;;2.40;;
51862;SDS011;37900;52.996;6.278;2023-08-06T00:03:05;6.47;;;2.50;;
51862;SDS011;37900;52.996;6.278;2023-08-06T00:05:31;3.03;;;2.03;;
51862;SDS011;37900;52.996;6.278;2023-08-06T00:07:57;2.67;;;2.33;;
51862;SDS011;37900;52.996;6.278;2023-08-06T00:10:23;2.40;;;2.20;;
51862;SDS011;37900;52.996;6.278;2023-08-06T00:12:48;2.60;;;2.40;;
51862;SDS011;37900;52.996;6.278;2023-08-06T00:15:14;2.42;;;2.20;;
51862;SDS011;37900;52.996;6.278;2023-08-06T00:17:40;2.30;;;2.10;;
51862;SDS011;37900;52.996;6.278;2023-08-06T00:20:06;2.45;;;2.25;;
51862;SDS011;37900;52.996;6.278;2023-08-06T00:22:36;2.60;;;1.98;;
51862;SDS011;37900;52.996;6.278;2023-08-06T00:25:03;2.63;;;2.30;;
51862;SDS011;37900;52.996;6.278;2023-08-06T00:27:30;2.20;;;2.00;;
51862;SDS011;37900;52.996;6.278;2023-08-06T00:29:57;2.72;;;2.42;;
51862;SDS011;37900;52.996;6.278;2023-08-06T00:32:23;2.35;;;2.15;;
51862;SDS011;37900;52.996;6.278;2023-08-06T00:34:49;2.60;;;2.40;;
51862;SDS011;37900;52.996;6.278;2023-08-06T00:37:18;2.20;;;1.90;;
51862;SDS011;37900;52.996;6.278;2023-08-06T00:39:44;2.08;;;1.88;;
51862;SDS011;37900;52.996;6.278;2023-08-06T00:42:13;2.38;;;2.17;;
51862;SDS011;37900;52.996;6.278;2023-08-06T00:44:39;2.40;;;2.15;;
51862;SDS011;37900;52.996;6.278;2023-08-06T00:47:05;2.58;;;2.00;;
51862;SDS011;37900;52.996;6.278;2023-08-06T00:49:32;2.75;;;2.22;;
51862;SDS011;37900;52.996;6.278;2023-08-06T00:51:59;2.50;;;2.25;;
51862;SDS011;37900;52.996;6.278;2023-08-06T00:54:24;2.20;;;2.00;;
51862;SDS011;37900;52.996;6.278;2023-08-06T00:56:52;2.22;;;1.90;;
51862;SDS011;37900;52.996;6.278;2023-08-06T00:59:18;2.20;;;2.00;;
51862;SDS011;37900;52.996;6.278;2023-08-06T01:01:45;2.38;;;1.95;;
51862;SDS011;37900;52.996;6.278;2023-08-06T01:04:10;2.10;;;1.90;;
51862;SDS011;37900;52.996;6.278;2023-08-06T01:06:47;2.20;;;2.00;;
51862;SDS011;37900;52.996;6.278;2023-08-06T01:09:34;2.10;;;1.90;;
51862;SDS011;37900;52.996;6.278;2023-08-06T01:17:23;2.28;;;2.03;;
51862;SDS011;37900;52.996;6.278;2023-08-06T01:19:51;2.13;;;1.90;;
51862;SDS011;37900;52.996;6.278;2023-08-06T01:22:17;2.63;;;2.13;;
51862;SDS011;37900;52.996;6.278;2023-08-06T01:24:44;2.33;;;2.10;;
51862;SDS011;37900;52.996;6.278;2023-08-06T01:27:25;2.72;;;1.95;;
51862;SDS011;37900;52.996;6.278;2023-08-06T01:30:02;2.10;;;1.90;;
51862;SDS011;37900;52.996;6.278;2023-08-06T01:32:32;2.20;;;2.00;;
51862;SDS011;37900;52.996;6.278;2023-08-06T01:35:00;2.33;;;2.10;;
51862;SDS011;37900;52.996;6.278;2023-08-06T01:37:27;2.35;;;2.00;;
51862;SDS011;37900;52.996;6.278;2023-08-06T01:39:53;2.33;;;1.80;;
51862;SDS011;37900;52.996;6.278;2023-08-06T01:42:19;3.28;;;2.03;;
51862;SDS011;37900;52.996;6.278;2023-08-06T01:44:44;2.35;;;2.15;;
51862;SDS011;37900;52.996;6.278;2023-08-06T01:47:10;2.42;;;2.17;;
51862;SDS011;37900;52.996;6.278;2023-08-06T01:49:37;2.20;;;2.00;;
51862;SDS011;37900;52.996;6.278;2023-08-06T01:52:03;2.10;;;1.90;;
51862;SDS011;37900;52.996;6.278;2023-08-06T01:54:29;2.55;;;2.35;;
51862;SDS011;37900;52.996;6.278;2023-08-06T01:56:55;2.10;;;1.85;;
51862;SDS011;37900;52.996;6.278;2023-08-06T01:59:20;2.38;;;2.17;;
51862;SDS011;37900;52.996;6.278;2023-08-06T02:01:46;2.88;;;1.88;;
51862;SDS011;37900;52.996;6.278;2023-08-06T02:04:12;2.38;;;2.03;;
51862;SDS011;37900;52.996;6.278;2023-08-06T02:06:37;2.05;;;1.92;;
51862;SDS011;37900;52.996;6.278;2023-08-06T02:09:03;2.28;;;2.03;;
51862;SDS011;37900;52.996;6.278;2023-08-06T02:11:29;2.30;;;2.05;;
51862;SDS011;37900;52.996;6.278;2023-08-06T02:13:54;2.40;;;1.90;;
51862;SDS011;37900;52.996;6.278;2023-08-06T02:16:20;2.13;;;1.92;;
51862;SDS011;37900;52.996;6.278;2023-08-06T02:18:46;2.20;;;2.00;;
51862;SDS011;37900;52.996;6.278;2023-08-06T02:21:11;2.30;;;2.10;;
51862;SDS011;37900;52.996;6.278;2023-08-06T02:23:37;1.95;;;1.80;;
51862;SDS011;37900;52.996;6.278;2023-08-06T02:26:03;2.17;;;1.98;;
51862;SDS011;37900;52.996;6.278;2023-08-06T02:28:30;2.10;;;1.90;;
51862;SDS011;37900;52.996;6.278;2023-08-06T02:30:56;2.63;;;2.33;;
51862;SDS011;37900;52.996;6.278;2023-08-06T02:33:21;2.83;;;2.33;;
51862;SDS011;37900;52.996;6.278;2023-08-06T02:35:47;2.55;;;2.08;;
51862;SDS011;37900;52.996;6.278;2023-08-06T02:38:13;2.17;;;1.90;;
51862;SDS011;37900;52.996;6.278;2023-08-06T02:40:43;2.28;;;2.03;;
51862;SDS011;37900;52.996;6.278;2023-08-06T02:43:10;2.10;;;1.90;;
51862;SDS011;37900;52.996;6.278;2023-08-06T02:45:35;2.13;;;1.88;;
51862;SDS011;37900;52.996;6.278;2023-08-06T02:48:01;2.28;;;2.08;;
51862;SDS011;37900;52.996;6.278;2023-08-06T02:50:27;2.13;;;1.92;;
51862;SDS011;37900;52.996;6.278;2023-08-06T02:52:53;2.00;;;1.80;;
51862;SDS011;37900;52.996;6.278;2023-08-06T02:55:19;2.55;;;2.17;;
51862;SDS011;37900;52.996;6.278;2023-08-06T02:57:44;2.13;;;1.92;;
51862;SDS011;37900;52.996;6.278;2023-08-06T03:00:10;2.10;;;1.80;;
51862;SDS011;37900;52.996;6.278;2023-08-06T03:02:36;2.22;;;2.00;;
51862;SDS011;37900;52.996;6.278;2023-08-06T03:05:02;2.35;;;2.03;;
51862;SDS011;37900;52.996;6.278;2023-08-06T03:07:28;2.30;;;2.10;;
51862;SDS011;37900;52.996;6.278;2023-08-06T03:09:54;1.70;;;1.60;;
51862;SDS011;37900;52.996;6.278;2023-08-06T03:12:20;1.92;;;1.73;;
51862;SDS011;37900;52.996;6.278;2023-08-06T03:14:46;1.83;;;1.65;;
51862;SDS011;37900;52.996;6.278;2023-08-06T03:17:11;2.55;;;2.05;;
51862;SDS011;37900;52.996;6.278;2023-08-06T03:19:37;2.20;;;2.00;;
51862;SDS011;37900;52.996;6.278;2023-08-06T03:22:03;2.28;;;2.08;;
51862;SDS011;37900;52.996;6.278;2023-08-06T03:24:29;2.58;;;2.22;;
51862;SDS011;37900;52.996;6.278;2023-08-06T03:26:54;3.08;;;1.92;;
51862;SDS011;37900;52.996;6.278;2023-08-06T03:29:20;2.20;;;2.00;;
51862;SDS011;37900;52.996;6.278;2023-08-06T03:31:47;2.10;;;1.90;;
51862;SDS011;37900;52.996;6.278;2023-08-06T03:34:12;2.45;;;2.00;;
51862;SDS011;37900;52.996;6.278;2023-08-06T03:36:38;2.10;;;1.85;;
51862;SDS011;37900;52.996;6.278;2023-08-06T03:39:04;2.10;;;1.90;;
51862;SDS011;37900;52.996;6.278;2023-08-06T03:41:30;2.13;;;1.83;;
51862;SDS011;37900;52.996;6.278;2023-08-06T03:43:55;2.10;;;1.90;;
51862;SDS011;37900;52.996;6.278;2023-08-06T03:46:21;2.30;;;2.00;;
51862;SDS011;37900;52.996;6.278;2023-08-06T03:48:47;1.90;;;1.80;;
51862;SDS011;37900;52.996;6.278;2023-08-06T03:51:12;2.10;;;1.70;;
51862;SDS011;37900;52.996;6.278;2023-08-06T03:53:38;2.22;;;2.03;;
51862;SDS011;37900;52.996;6.278;2023-08-06T03:56:04;2.60;;;1.90;;
51862;SDS011;37900;52.996;6.278;2023-08-06T03:58:30;2.30;;;2.10;;
51862;SDS011;37900;52.996;6.278;2023-08-06T04:01:02;2.40;;;1.83;;
51862;SDS011;37900;52.996;6.278;2023-08-06T04:03:28;2.20;;;2.00;;
51862;SDS011;37900;52.996;6.278;2023-08-06T04:05:54;1.92;;;1.83;;
51862;SDS011;37900;52.996;6.278;2023-08-06T04:08:20;2.40;;;2.20;;
51862;SDS011;37900;52.996;6.278;2023-08-06T04:10:49;1.95;;;1.80;;
51862;SDS011;37900;52.996;6.278;2023-08-06T04:13:16;2.65;;;2.05;;
51862;SDS011;37900;52.996;6.278;2023-08-06T04:15:42;2.58;;;1.88;;
51862;SDS011;37900;52.996;6.278;2023-08-06T04:18:07;2.17;;;1.98;;
51862;SDS011;37900;52.996;6.278;2023-08-06T04:20:33;2.35;;;1.83;;
51862;SDS011;37900;52.996;6.278;2023-08-06T04:22:59;2.55;;;2.08;;
51862;SDS011;37900;52.996;6.278;2023-08-06T04:25:30;2.00;;;1.80;;
51862;SDS011;37900;52.996;6.278;2023-08-06T04:27:56;1.83;;;1.73;;
51862;SDS011;37900;52.996;6.278;2023-08-06T04:30:22;1.90;;;1.80;;
51862;SDS011;37900;52.996;6.278;2023-08-06T04:32:49;1.77;;;1.60;;
51862;SDS011;37900;52.996;6.278;2023-08-06T04:35:15;2.00;;;1.80;;
51862;SDS011;37900;52.996;6.278;2023-08-06T04:37:41;2.05;;;1.88;;
51862;SDS011;37900;52.996;6.278;2023-08-06T04:40:07;2.10;;;1.90;;
51862;SDS011;37900;52.996;6.278;2023-08-06T04:42:33;3.00;;;2.13;;
51862;SDS011;37900;52.996;6.278;2023-08-06T04:45:00;2.15;;;1.90;;
51862;SDS011;37900;52.996;6.278;2023-08-06T04:47:27;1.95;;;1.65;;
51862;SDS011;37900;52.996;6.278;2023-08-06T04:49:53;2.20;;;1.70;;
51862;SDS011;37900;52.996;6.278;2023-08-06T04:52:18;2.10;;;1.90;;
51862;SDS011;37900;52.996;6.278;2023-08-06T04:54:44;2.25;;;2.05;;
51862;SDS011;37900;52.996;6.278;2023-08-06T04:57:10;2.22;;;1.73;;
51862;SDS011;37900;52.996;6.278;2023-08-06T04:59:35;2.05;;;1.70;;
51862;SDS011;37900;52.996;6.278;2023-08-06T05:02:01;1.95;;;1.75;;
51862;SDS011;37900;52.996;6.278;2023-08-06T05:04:27;2.10;;;1.88;;
51862;SDS011;37900;52.996;6.278;2023-08-06T05:06:53;2.20;;;2.00;;
51862;SDS011;37900;52.996;6.278;2023-08-06T05:09:19;2.00;;;1.80;;
51862;SDS011;37900;52.996;6.278;2023-08-06T05:11:48;2.20;;;1.80;;
51862;SDS011;37900;52.996;6.278;2023-08-06T05:14:14;1.95;;;1.75;;
51862;SDS011;37900;52.996;6.278;2023-08-06T05:16:40;1.92;;;1.73;;
51862;SDS011;37900;52.996;6.278;2023-08-06T05:19:06;1.95;;;1.73;;
51862;SDS011;37900;52.996;6.278;2023-08-06T05:21:31;2.10;;;1.90;;
51862;SDS011;37900;52.996;6.278;2023-08-06T05:23:57;2.00;;;1.67;;
51862;SDS011;37900;52.996;6.278;2023-08-06T05:26:23;1.63;;;1.52;;
51862;SDS011;37900;52.996;6.278;2023-08-06T05:28:48;2.00;;;1.80;;
51862;SDS011;37900;52.996;6.278;2023-08-06T05:31:14;1.88;;;1.70;;
51862;SDS011;37900;52.996;6.278;2023-08-06T05:33:40;2.20;;;1.80;;
51862;SDS011;37900;52.996;6.278;2023-08-06T05:36:05;2.20;;;2.00;;
51862;SDS011;37900;52.996;6.278;2023-08-06T05:38:31;2.13;;;1.80;;
51862;SDS011;37900;52.996;6.278;2023-08-06T05:40:57;1.55;;;1.45;;
51862;SDS011;37900;52.996;6.278;2023-08-06T05:43:22;2.08;;;1.88;;
51862;SDS011;37900;52.996;6.278;2023-08-06T05:45:51;1.65;;;1.55;;
51862;SDS011;37900;52.996;6.278;2023-08-06T05:48:17;2.08;;;1.88;;
51862;SDS011;37900;52.996;6.278;2023-08-06T05:50:42;1.75;;;1.60;;
51862;SDS011;37900;52.996;6.278;2023-08-06T05:53:08;1.92;;;1.73;;
51862;SDS011;37900;52.996;6.278;2023-08-06T05:55:34;1.92;;;1.73;;
51862;SDS011;37900;52.996;6.278;2023-08-06T05:58:00;1.90;;;1.60;;
51862;SDS011;37900;52.996;6.278;2023-08-06T06:00:26;2.45;;;1.75;;
51862;SDS011;37900;52.996;6.278;2023-08-06T06:02:51;2.00;;;1.80;;
51862;SDS011;37900;52.996;6.278;2023-08-06T06:05:17;1.88;;;1.67;;
51862;SDS011;37900;52.996;6.278;2023-08-06T06:07:43;1.85;;;1.65;;
51862;SDS011;37900;52.996;6.278;2023-08-06T06:10:09;2.00;;;1.80;;
51862;SDS011;37900;52.996;6.278;2023-08-06T06:12:35;1.60;;;1.50;;
51862;SDS011;37900;52.996;6.278;2023-08-06T06:15:01;1.90;;;1.70;;
51862;SDS011;37900;52.996;6.278;2023-08-06T06:17:27;1.73;;;1.63;;
51862;SDS011;37900;52.996;6.278;2023-08-06T06:19:54;2.15;;;1.67;;
51862;SDS011;37900;52.996;6.278;2023-08-06T06:22:20;1.58;;;1.48;;
51862;SDS011;37900;52.996;6.278;2023-08-06T06:24:45;1.70;;;1.60;;
51862;SDS011;37900;52.996;6.278;2023-08-06T06:27:11;1.98;;;1.80;;
51862;SDS011;37900;52.996;6.278;2023-08-06T06:29:37;2.08;;;1.67;;
51862;SDS011;37900;52.996;6.278;2023-08-06T06:32:02;1.73;;;1.60;;
51862;SDS011;37900;52.996;6.278;2023-08-06T06:34:28;2.65;;;2.00;;
51862;SDS011;37900;52.996;6.278;2023-08-06T06:36:54;1.75;;;1.65;;
51862;SDS011;37900;52.996;6.278;2023-08-06T06:39:20;1.70;;;1.58;;
51862;SDS011;37900;52.996;6.278;2023-08-06T06:41:46;1.58;;;1.48;;
51862;SDS011;37900;52.996;6.278;2023-08-06T06:44:12;2.22;;;1.83;;
51862;SDS011;37900;52.996;6.278;2023-08-06T06:46:38;1.85;;;1.75;;
51862;SDS011;37900;52.996;6.278;2023-08-06T06:49:04;1.60;;;1.50;;
51862;SDS011;37900;52.996;6.278;2023-08-06T06:51:30;1.95;;;1.67;;
51862;SDS011;37900;52.996;6.278;2023-08-06T06:53:57;2.28;;;1.70;;
51862;SDS011;37900;52.996;6.278;2023-08-06T06:56:22;1.77;;;1.67;;
51862;SDS011;37900;52.996;6.278;2023-08-06T06:58:48;1.70;;;1.60;;
51862;SDS011;37900;52.996;6.278;2023-08-06T07:01:14;1.70;;;1.60;;
51862;SDS011;37900;52.996;6.278;2023-08-06T07:03:39;1.80;;;1.70;;
51862;SDS011;37900;52.996;6.278;2023-08-06T07:06:05;1.83;;;1.67;;
51862;SDS011;37900;52.996;6.278;2023-08-06T07:08:31;1.90;;;1.65;;
51862;SDS011;37900;52.996;6.278;2023-08-06T07:11:04;1.65;;;1.55;;
51862;SDS011;37900;52.996;6.278;2023-08-06T07:13:31;2.28;;;1.90;;
51862;SDS011;37900;52.996;6.278;2023-08-06T07:15:57;2.50;;;1.70;;
51862;SDS011;37900;52.996;6.278;2023-08-06T07:18:23;1.85;;;1.60;;
51862;SDS011;37900;52.996;6.278;2023-08-06T07:20:50;2.03;;;1.73;;
51862;SDS011;37900;52.996;6.278;2023-08-06T07:23:16;1.83;;;1.70;;
51862;SDS011;37900;52.996;6.278;2023-08-06T07:25:46;1.88;;;1.67;;
51862;SDS011;37900;52.996;6.278;2023-08-06T07:28:12;1.88;;;1.77;;
51862;SDS011;37900;52.996;6.278;2023-08-06T07:30:39;1.65;;;1.55;;
51862;SDS011;37900;52.996;6.278;2023-08-06T07:33:05;2.17;;;1.60;;
51862;SDS011;37900;52.996;6.278;2023-08-06T07:35:31;1.70;;;1.60;;
51862;SDS011;37900;52.996;6.278;2023-08-06T07:37:57;1.93;;;1.80;;
51862;SDS011;37900;52.996;6.278;2023-08-06T07:40:23;1.52;;;1.42;;
51862;SDS011;37900;52.996;6.278;2023-08-06T07:42:49;1.80;;;1.45;;
51862;SDS011;37900;52.996;6.278;2023-08-06T07:45:15;1.70;;;1.50;;
51862;SDS011;37900;52.996;6.278;2023-08-06T07:47:40;1.73;;;1.63;;
51862;SDS011;37900;52.996;6.278;2023-08-06T07:50:07;1.85;;;1.75;;
51862;SDS011;37900;52.996;6.278;2023-08-06T07:52:34;1.85;;;1.45;;
51862;SDS011;37900;52.996;6.278;2023-08-06T07:55:00;2.30;;;1.75;;
51862;SDS011;37900;52.996;6.278;2023-08-06T07:57:30;1.73;;;1.60;;
51862;SDS011;37900;52.996;6.278;2023-08-06T07:59:59;2.10;;;1.90;;
51862;SDS011;37900;52.996;6.278;2023-08-06T08:02:26;1.85;;;1.58;;
51862;SDS011;37900;52.996;6.278;2023-08-06T08:04:51;2.92;;;1.88;;
51862;SDS011;37900;52.996;6.278;2023-08-06T08:07:18;2.10;;;1.70;;
51862;SDS011;37900;52.996;6.278;2023-08-06T08:09:44;2.33;;;2.13;;
51862;SDS011;37900;52.996;6.278;2023-08-06T08:12:10;2.85;;;1.75;;
51862;SDS011;37900;52.996;6.278;2023-08-06T08:14:35;1.63;;;1.52;;
51862;SDS011;37900;52.996;6.278;2023-08-06T08:17:02;1.92;;;1.67;;
51862;SDS011;37900;52.996;6.278;2023-08-06T08:19:29;3.10;;;1.77;;
51862;SDS011;37900;52.996;6.278;2023-08-06T08:21:55;2.30;;;1.95;;
51862;SDS011;37900;52.996;6.278;2023-08-06T08:24:21;2.17;;;1.98;;
51862;SDS011;37900;52.996;6.278;2023-08-06T08:26:52;2.40;;;2.20;;
51862;SDS011;37900;52.996;6.278;2023-08-06T08:29:19;2.30;;;2.08;;
51862;SDS011;37900;52.996;6.278;2023-08-06T08:31:45;2.95;;;1.98;;
51862;SDS011;37900;52.996;6.278;2023-08-06T08:34:11;2.65;;;2.08;;
51862;SDS011;37900;52.996;6.278;2023-08-06T08:36:38;3.00;;;2.17;;
51862;SDS011;37900;52.996;6.278;2023-08-06T08:39:03;3.95;;;2.22;;
51862;SDS011;37900;52.996;6.278;2023-08-06T08:41:30;2.50;;;1.97;;
51862;SDS011;37900;52.996;6.278;2023-08-06T08:43:56;2.63;;;2.30;;
51862;SDS011;37900;52.996;6.278;2023-08-06T08:46:25;4.60;;;2.55;;
51862;SDS011;37900;52.996;6.278;2023-08-06T08:48:52;4.50;;;2.78;;
51862;SDS011;37900;52.996;6.278;2023-08-06T08:51:19;3.17;;;2.30;;
51862;SDS011;37900;52.996;6.278;2023-08-06T08:53:45;8.27;;;4.55;;
51862;SDS011;37900;52.996;6.278;2023-08-06T08:56:13;9.50;;;4.90;;
51862;SDS011;37900;52.996;6.278;2023-08-06T08:58:39;6.93;;;4.47;;
51862;SDS011;37900;52.996;6.278;2023-08-06T09:01:05;6.65;;;3.58;;
51862;SDS011;37900;52.996;6.278;2023-08-06T09:03:32;5.90;;;3.72;;
51862;SDS011;37900;52.996;6.278;2023-08-06T09:05:59;5.50;;;3.63;;
51862;SDS011;37900;52.996;6.278;2023-08-06T09:08:30;8.48;;;3.97;;
51862;SDS011;37900;52.996;6.278;2023-08-06T09:11:08;5.95;;;3.72;;
51862;SDS011;37900;52.996;6.278;2023-08-06T09:13:36;7.20;;;3.60;;
51862;SDS011;37900;52.996;6.278;2023-08-06T09:16:03;10.68;;;4.22;;
51862;SDS011;37900;52.996;6.278;2023-08-06T09:18:29;4.47;;;3.60;;
51862;SDS011;37900;52.996;6.278;2023-08-06T09:20:56;6.28;;;3.50;;
51862;SDS011;37900;52.996;6.278;2023-08-06T09:23:27;4.40;;;3.25;;
51862;SDS011;37900;52.996;6.278;2023-08-06T09:25:58;5.38;;;3.42;;
51862;SDS011;37900;52.996;6.278;2023-08-06T09:28:24;6.00;;;3.50;;
51862;SDS011;37900;52.996;6.278;2023-08-06T09:31:02;5.10;;;3.60;;
51862;SDS011;37900;52.996;6.278;2023-08-06T09:33:29;5.00;;;3.08;;
51862;SDS011;37900;52.996;6.278;2023-08-06T09:35:54;4.75;;;3.17;;
51862;SDS011;37900;52.996;6.278;2023-08-06T09:38:20;5.90;;;3.47;;
51862;SDS011;37900;52.996;6.278;2023-08-06T09:40:46;5.80;;;3.33;;
51862;SDS011;37900;52.996;6.278;2023-08-06T09:43:12;4.37;;;3.20;;
51862;SDS011;37900;52.996;6.278;2023-08-06T09:45:39;4.38;;;3.22;;
51862;SDS011;37900;52.996;6.278;2023-08-06T09:48:05;4.80;;;3.20;;
51862;SDS011;37900;52.996;6.278;2023-08-06T09:50:34;4.95;;;3.40;;
51862;SDS011;37900;52.996;6.278;2023-08-06T09:53:02;4.55;;;2.85;;
51862;SDS011;37900;52.996;6.278;2023-08-06T09:55:29;4.57;;;3.20;;
51862;SDS011;37900;52.996;6.278;2023-08-06T09:57:55;4.05;;;2.92;;
51862;SDS011;37900;52.996;6.278;2023-08-06T10:00:21;3.58;;;3.00;;
51862;SDS011;37900;52.996;6.278;2023-08-06T10:02:48;3.20;;;2.70;;
51862;SDS011;37900;52.996;6.278;2023-08-06T10:05:16;5.50;;;3.83;;
51862;SDS011;37900;52.996;6.278;2023-08-06T10:07:43;5.10;;;3.50;;
51862;SDS011;37900;52.996;6.278;2023-08-06T10:10:10;3.88;;;2.75;;
51862;SDS011;37900;52.996;6.278;2023-08-06T10:12:38;4.03;;;2.80;;
51862;SDS011;37900;52.996;6.278;2023-08-06T10:15:08;4.05;;;3.00;;
51862;SDS011;37900;52.996;6.278;2023-08-06T10:17:36;4.07;;;2.97;;
51862;SDS011;37900;52.996;6.278;2023-08-06T10:20:07;2.80;;;2.50;;
51862;SDS011;37900;52.996;6.278;2023-08-06T10:22:33;3.72;;;3.17;;
51862;SDS011;37900;52.996;6.278;2023-08-06T10:25:00;3.47;;;2.75;;
51862;SDS011;37900;52.996;6.278;2023-08-06T10:32:51;4.53;;;3.03;;
51862;SDS011;37900;52.996;6.278;2023-08-06T10:38:07;4.32;;;2.80;;
51862;SDS011;37900;52.996;6.278;2023-08-06T10:40:32;3.28;;;2.45;;
51862;SDS011;37900;52.996;6.278;2023-08-06T10:42:59;4.63;;;2.50;;
51862;SDS011;37900;52.996;6.278;2023-08-06T10:47:54;3.42;;;2.63;;
51862;SDS011;37900;52.996;6.278;2023-08-06T10:50:23;3.38;;;2.67;;
51862;SDS011;37900;52.996;6.278;2023-08-06T10:52:49;4.15;;;2.55;;
51862;SDS011;37900;52.996;6.278;2023-08-06T10:55:22;3.80;;;2.85;;
51862;SDS011;37900;52.996;6.278;2023-08-06T10:57:53;5.15;;;2.97;;
51862;SDS011;37900;52.996;6.278;2023-08-06T11:00:20;3.65;;;2.75;;
51862;SDS011;37900;52.996;6.278;2023-08-06T11:02:49;4.68;;;2.72;;
51862;SDS011;37900;52.996;6.278;2023-08-06T11:07:42;3.08;;;2.47;;
51862;SDS011;37900;52.996;6.278;2023-08-06T11:10:09;3.78;;;2.50;;
51862;SDS011;37900;52.996;6.278;2023-08-06T11:12:37;3.85;;;2.53;;
51862;SDS011;37900;52.996;6.278;2023-08-06T11:15:03;3.97;;;2.37;;
51862;SDS011;37900;52.996;6.278;2023-08-06T11:17:31;3.58;;;2.63;;
51862;SDS011;37900;52.996;6.278;2023-08-06T11:20:02;2.67;;;2.40;;
51862;SDS011;37900;52.996;6.278;2023-08-06T11:22:29;3.38;;;2.45;;
51862;SDS011;37900;52.996;6.278;2023-08-06T11:24:55;3.60;;;2.83;;
51862;SDS011;37900;52.996;6.278;2023-08-06T11:27:21;2.97;;;2.40;;
51862;SDS011;37900;52.996;6.278;2023-08-06T11:29:46;2.60;;;2.40;;
51862;SDS011;37900;52.996;6.278;2023-08-06T11:32:12;4.30;;;2.40;;
51862;SDS011;37900;52.996;6.278;2023-08-06T11:34:38;3.33;;;2.60;;
51862;SDS011;37900;52.996;6.278;2023-08-06T11:37:04;2.43;;;2.23;;
51862;SDS011;37900;52.996;6.278;2023-08-06T11:39:34;3.33;;;2.13;;
51862;SDS011;37900;52.996;6.278;2023-08-06T11:42:05;2.97;;;2.25;;
51862;SDS011;37900;52.996;6.278;2023-08-06T11:44:32;2.67;;;2.17;;
51862;SDS011;37900;52.996;6.278;2023-08-06T11:47:02;2.78;;;2.55;;
51862;SDS011;37900;52.996;6.278;2023-08-06T11:52:13;3.22;;;2.35;;
51862;SDS011;37900;52.996;6.278;2023-08-06T11:54:49;3.38;;;2.22;;
51862;SDS011;37900;52.996;6.278;2023-08-06T11:57:31;2.67;;;2.25;;
51862;SDS011;37900;52.996;6.278;2023-08-06T12:02:31;4.35;;;2.50;;
51862;SDS011;37900;52.996;6.278;2023-08-06T12:05:13;3.08;;;2.05;;
51862;SDS011;37900;52.996;6.278;2023-08-06T12:07:49;2.78;;;2.42;;
51862;SDS011;37900;52.996;6.278;2023-08-06T12:10:16;2.63;;;2.30;;
51862;SDS011;37900;52.996;6.278;2023-08-06T12:12:42;2.22;;;1.80;;
51862;SDS011;37900;52.996;6.278;2023-08-06T12:15:09;2.78;;;2.30;;
51862;SDS011;37900;52.996;6.278;2023-08-06T12:17:35;2.53;;;2.28;;
51862;SDS011;37900;52.996;6.278;2023-08-06T12:20:03;2.88;;;2.50;;
51862;SDS011;37900;52.996;6.278;2023-08-06T12:22:29;2.30;;;2.10;;
51862;SDS011;37900;52.996;6.278;2023-08-06T12:25:00;2.33;;;2.10;;
51862;SDS011;37900;52.996;6.278;2023-08-06T12:27:28;3.28;;;2.03;;
51862;SDS011;37900;52.996;6.278;2023-08-06T12:29:54;3.08;;;2.25;;
51862;SDS011;37900;52.996;6.278;2023-08-06T12:32:20;3.42;;;2.47;;
51862;SDS011;37900;52.996;6.278;2023-08-06T12:34:47;3.13;;;2.55;;
51862;SDS011;37900;52.996;6.278;2023-08-06T12:37:13;3.17;;;2.35;;
51862;SDS011;37900;52.996;6.278;2023-08-06T12:39:39;7.63;;;4.30;;
51862;SDS011;37900;52.996;6.278;2023-08-06T12:42:05;5.50;;;3.15;;
51862;SDS011;37900;52.996;6.278;2023-08-06T12:44:31;4.43;;;2.50;;
51862;SDS011;37900;52.996;6.278;2023-08-06T12:46:58;4.13;;;2.60;;
51862;SDS011;37900;52.996;6.278;2023-08-06T12:49:25;5.15;;;3.03;;
51862;SDS011;37900;52.996;6.278;2023-08-06T12:51:52;3.28;;;2.60;;
51862;SDS011;37900;52.996;6.278;2023-08-06T12:54:18;3.53;;;2.47;;
51862;SDS011;37900;52.996;6.278;2023-08-06T12:56:47;4.53;;;3.05;;
51862;SDS011;37900;52.996;6.278;2023-08-06T12:59:14;4.63;;;3.08;;
51862;SDS011;37900;52.996;6.278;2023-08-06T13:01:40;4.88;;;2.55;;
51862;SDS011;37900;52.996;6.278;2023-08-06T13:04:06;4.28;;;2.92;;
51862;SDS011;37900;52.996;6.278;2023-08-06T13:06:32;4.47;;;2.92;;
51862;SDS011;37900;52.996;6.278;2023-08-06T13:09:11;4.78;;;3.08;;
51862;SDS011;37900;52.996;6.278;2023-08-06T13:11:38;5.50;;;3.15;;
51862;SDS011;37900;52.996;6.278;2023-08-06T13:14:05;5.88;;;3.10;;
51862;SDS011;37900;52.996;6.278;2023-08-06T13:16:33;3.83;;;2.75;;
51862;SDS011;37900;52.996;6.278;2023-08-06T13:19:00;4.57;;;2.67;;
51862;SDS011;37900;52.996;6.278;2023-08-06T13:21:33;3.65;;;2.65;;
51862;SDS011;37900;52.996;6.278;2023-08-06T13:24:00;3.15;;;2.30;;
51862;SDS011;37900;52.996;6.278;2023-08-06T13:26:27;3.20;;;2.50;;
51862;SDS011;37900;52.996;6.278;2023-08-06T13:28:57;2.85;;;2.20;;
51862;SDS011;37900;52.996;6.278;2023-08-06T13:31:23;3.78;;;2.50;;
51862;SDS011;37900;52.996;6.278;2023-08-06T13:33:50;3.10;;;2.40;;
51862;SDS011;37900;52.996;6.278;2023-08-06T13:36:16;3.50;;;2.40;;
51862;SDS011;37900;52.996;6.278;2023-08-06T13:38:42;5.27;;;2.70;;
51862;SDS011;37900;52.996;6.278;2023-08-06T13:41:08;4.55;;;2.65;;
51862;SDS011;37900;52.996;6.278;2023-08-06T13:43:33;3.20;;;2.50;;
51862;SDS011;37900;52.996;6.278;2023-08-06T13:45:59;4.03;;;2.67;;
51862;SDS011;37900;52.996;6.278;2023-08-06T13:48:25;3.35;;;2.47;;
51862;SDS011;37900;52.996;6.278;2023-08-06T13:50:51;3.42;;;2.70;;
51862;SDS011;37900;52.996;6.278;2023-08-06T13:53:17;3.25;;;2.20;;
51862;SDS011;37900;52.996;6.278;2023-08-06T13:55:42;3.17;;;2.67;;
51862;SDS011;37900;52.996;6.278;2023-08-06T13:58:08;4.38;;;2.65;;
51862;SDS011;37900;52.996;6.278;2023-08-06T14:00:35;3.35;;;2.17;;
51862;SDS011;37900;52.996;6.278;2023-08-06T14:03:01;4.57;;;2.35;;
51862;SDS011;37900;52.996;6.278;2023-08-06T14:05:27;3.30;;;2.50;;
51862;SDS011;37900;52.996;6.278;2023-08-06T14:07:53;4.70;;;2.67;;
51862;SDS011;37900;52.996;6.278;2023-08-06T14:10:18;4.25;;;2.50;;
51862;SDS011;37900;52.996;6.278;2023-08-06T14:12:44;3.53;;;2.17;;
51862;SDS011;37900;52.996;6.278;2023-08-06T14:15:10;2.85;;;2.45;;
51862;SDS011;37900;52.996;6.278;2023-08-06T14:17:36;2.90;;;2.47;;
51862;SDS011;37900;52.996;6.278;2023-08-06T14:20:03;3.25;;;2.50;;
51862;SDS011;37900;52.996;6.278;2023-08-06T14:22:30;3.17;;;2.40;;
51862;SDS011;37900;52.996;6.278;2023-08-06T14:24:57;4.95;;;2.78;;
51862;SDS011;37900;52.996;6.278;2023-08-06T14:27:23;2.67;;;2.20;;
51862;SDS011;37900;52.996;6.278;2023-08-06T14:29:49;2.80;;;2.22;;
51862;SDS011;37900;52.996;6.278;2023-08-06T14:32:15;3.55;;;2.55;;
51862;SDS011;37900;52.996;6.278;2023-08-06T14:34:43;4.03;;;2.40;;
51862;SDS011;37900;52.996;6.278;2023-08-06T14:37:09;3.30;;;2.40;;
51862;SDS011;37900;52.996;6.278;2023-08-06T14:39:35;3.93;;;2.47;;
51862;SDS011;37900;52.996;6.278;2023-08-06T14:42:01;3.72;;;2.30;;
51862;SDS011;37900;52.996;6.278;2023-08-06T14:44:28;3.97;;;2.65;;
51862;SDS011;37900;52.996;6.278;2023-08-06T14:46:53;3.47;;;2.42;;
51862;SDS011;37900;52.996;6.278;2023-08-06T14:49:19;3.13;;;2.28;;
51862;SDS011;37900;52.996;6.278;2023-08-06T14:51:45;2.40;;;2.20;;
51862;SDS011;37900;52.996;6.278;2023-08-06T14:54:11;3.30;;;2.38;;
51862;SDS011;37900;52.996;6.278;2023-08-06T14:56:37;2.38;;;1.90;;
51862;SDS011;37900;52.996;6.278;2023-08-06T14:59:02;2.83;;;2.30;;
51862;SDS011;37900;52.996;6.278;2023-08-06T15:01:28;3.60;;;2.30;;
51862;SDS011;37900;52.996;6.278;2023-08-06T15:03:54;4.05;;;2.47;;
51862;SDS011;37900;52.996;6.278;2023-08-06T15:06:19;3.15;;;2.58;;
51862;SDS011;37900;52.996;6.278;2023-08-06T15:08:45;2.97;;;2.33;;